This is the latest recevied weather packets stored in our database for station/object HA5CD-6. If no packets are shown the sender has not sent any weather packets the latest 10 day(s).
| Time | Temp. | Humidity | Pressure | Rain* | Wind** | Luminosity | Snow |
|---|---|---|---|---|---|---|---|
| 1777702899 | 25° C | 25% | 1001 hPa | - | - | - | - |
| 1777702299 | 25° C | 25% | 1001 hPa | - | - | - | - |
| 1777701699 | 23.33° C | 27% | 1001 hPa | - | - | - | - |
| 1777701099 | 22.78° C | 26% | 1001 hPa | - | - | - | - |
| 1777700499 | 22.22° C | 27% | 1001 hPa | - | - | - | - |
| 1777699898 | 23.33° C | 26% | 1001 hPa | - | - | - | - |
| 1777699298 | 23.33° C | 27% | 1001 hPa | - | - | - | - |
| 1777698698 | 21.11° C | 29% | 1001 hPa | - | - | - | - |
| 1777698098 | 21.11° C | 30% | 1001 hPa | - | - | - | - |
| 1777697498 | 19.44° C | 31% | 1001 hPa | - | - | - | - |
| 1777696898 | 18.33° C | 32% | 1001 hPa | - | - | - | - |
| 1777696298 | 17.22° C | 34% | 1001 hPa | - | - | - | - |
| 1777695698 | 16.67° C | 36% | 1001 hPa | - | - | - | - |
| 1777695097 | 13.89° C | 41% | 1001 hPa | - | - | - | - |
| 1777694497 | 11.11° C | 46% | 1001 hPa | - | - | - | - |
| 1777693897 | 11.11° C | 46% | 1001 hPa | - | - | - | - |
| 1777693297 | 11.11° C | 47% | 1001 hPa | - | - | - | - |
| 1777692697 | 11.11° C | 47% | 1001 hPa | - | - | - | - |
| 1777692097 | 10.56° C | 47% | 1001 hPa | - | - | - | - |
| 1777691497 | 10.56° C | 48% | 1001 hPa | - | - | - | - |
| 1777690897 | 10.56° C | 48% | 1001 hPa | - | - | - | - |
| 1777690297 | 10.56° C | 47% | 1001 hPa | - | - | - | - |
| 1777689696 | 10.56° C | 48% | 1001 hPa | - | - | - | - |
| 1777689096 | 10° C | 51% | 1001 hPa | - | - | - | - |
| 1777674093 | 12.78° C | 42% | 1002 hPa | - | - | - | - |
* Rain since midnight (hover to see other rain measurements)
** Current wind speed in m/s (hover to see current wind gust speed)